Time;durP1;ratioP1;P1;durP2;ratioP2;P2;SDS_P1;SDS_P2;PMS_P1;PMS_P2;Temp;Humidity;BMP_temperature;BMP_pressure;BME280_temperature;BME280_humidity;BME280_pressure;Samples;Min_cycle;Max_cycle;Signal;HPM_P1;HPM_P2
2021/03/30 00:00:51;;;;;;;8.90;5.40;;;;;;;7.01;98.51;97827.97;5024854;28;20061;-50
2021/03/30 00:03:18;;;;;;;6.85;4.97;;;;;;;6.87;99.58;97829.59;4995592;28;20068;-51
2021/03/30 00:05:47;;;;;;;8.05;5.50;;;;;;;6.79;98.02;97823.97;5035422;28;20080;-54
2021/03/30 00:08:15;;;;;;;10.35;5.85;;;;;;;6.82;96.88;97831.66;4996380;28;20103;-50
2021/03/30 00:10:44;;;;;;;10.38;5.72;;;;;;;6.83;100.00;97822.00;5034143;28;20056;-52
2021/03/30 00:13:12;;;;;;;7.60;5.07;;;;;;;6.77;100.00;97823.19;5002757;28;20069;-51
2021/03/30 00:15:40;;;;;;;8.80;5.82;;;;;;;6.77;100.00;97817.94;5026290;28;20068;-46
2021/03/30 00:18:07;;;;;;;9.25;5.70;;;;;;;6.68;100.00;97817.66;4996146;28;20077;-49
2021/03/30 00:20:34;;;;;;;11.38;5.65;;;;;;;6.73;100.00;97823.47;5025513;28;20077;-50
2021/03/30 00:23:03;;;;;;;9.38;5.45;;;;;;;6.69;100.00;97814.09;5000057;28;20473;-47
2021/03/30 00:25:31;;;;;;;8.88;5.70;;;;;;;6.67;100.00;97822.03;5025901;28;20060;-48
2021/03/30 00:27:58;;;;;;;9.55;5.93;;;;;;;6.58;100.00;97820.78;5033034;28;20065;-53
2021/03/30 00:30:26;;;;;;;9.25;5.90;;;;;;;6.56;100.00;97817.38;5003166;28;20061;-46
2021/03/30 00:32:54;;;;;;;9.07;5.85;;;;;;;6.36;100.00;97821.13;5021583;28;20131;-52
2021/03/30 00:35:21;;;;;;;9.38;5.75;;;;;;;6.28;100.00;97820.69;5000547;28;20076;-51
2021/03/30 00:37:49;;;;;;;7.88;5.68;;;;;;;6.36;100.00;97817.66;5026706;28;20107;-48
2021/03/30 00:40:18;;;;;;;11.10;6.10;;;;;;;6.37;100.00;97814.97;4996800;28;20065;-50
2021/03/30 00:42:46;;;;;;;8.50;5.82;;;;;;;6.37;100.00;97825.44;5018781;28;20485;-46
2021/03/30 00:45:15;;;;;;;7.03;5.57;;;;;;;6.32;100.00;97818.75;4990811;28;20073;-46
2021/03/30 00:47:45;;;;;;;8.20;5.60;;;;;;;6.21;100.00;97813.28;5015574;28;20522;-50
2021/03/30 00:50:14;;;;;;;13.97;6.00;;;;;;;6.06;100.00;97812.34;4996972;28;20076;-51
2021/03/30 00:52:43;;;;;;;10.38;6.30;;;;;;;6.06;100.00;97809.72;5017480;28;20516;-53
2021/03/30 00:55:12;;;;;;;7.75;5.63;;;;;;;6.03;100.00;97812.50;4987243;28;20066;-51
2021/03/30 00:57:40;;;;;;;8.07;5.70;;;;;;;5.92;100.00;97810.44;5022827;28;20069;-48
2021/03/30 01:00:09;;;;;;;7.70;5.85;;;;;;;5.87;100.00;97810.66;5004142;28;20077;-52
2021/03/30 01:02:37;;;;;;;10.07;5.80;;;;;;;5.91;100.00;97809.56;5023448;28;20080;-49
2021/03/30 01:05:06;;;;;;;10.18;6.07;;;;;;;5.69;100.00;97816.88;4997647;28;20077;-50
2021/03/30 01:07:34;;;;;;;9.05;6.00;;;;;;;5.79;100.00;97818.09;5028554;28;20730;-47
2021/03/30 01:10:09;;;;;;;8.93;5.97;;;;;;;5.79;100.00;97818.09;4992281;28;20096;-54
2021/03/30 01:12:46;;;;;;;7.30;5.80;;;;;;;5.62;100.00;97813.75;5016492;28;20152;-51
2021/03/30 01:15:20;;;;;;;9.10;6.25;;;;;;;5.31;100.00;97811.88;5006623;28;20519;-53
2021/03/30 01:17:56;;;;;;;12.88;6.25;;;;;;;5.34;100.00;97818.72;5023358;28;20087;-49
2021/03/30 01:21:08;;;;;;;10.60;5.88;;;;;;;5.38;100.00;97815.03;5000636;28;24875;-49
2021/03/30 01:23:45;;;;;;;9.70;5.78;;;;;;;5.16;100.00;97821.38;4981155;28;20456;-49
2021/03/30 01:26:18;;;;;;;9.52;6.07;;;;;;;4.97;100.00;97828.44;4999177;28;20085;-49
2021/03/30 01:28:59;;;;;;;9.55;5.88;;;;;;;4.90;100.00;97821.81;5026772;28;20084;-50
2021/03/30 01:31:27;;;;;;;;;;;;;;;5.15;100.00;97822.25;4992222;28;20081;-48
2021/03/30 01:33:56;;;;;;;8.48;5.60;;;;;;;5.31;100.00;97817.09;5020874;28;20336;-48
2021/03/30 01:36:25;;;;;;;7.63;5.70;;;;;;;5.29;100.00;97816.34;4995233;28;20065;-52
2021/03/30 01:38:53;;;;;;;7.32;5.43;;;;;;;4.94;100.00;97823.34;5028552;28;20072;-49
2021/03/30 01:41:22;;;;;;;8.63;5.88;;;;;;;4.78;100.00;97820.63;4997779;28;20080;-51
2021/03/30 01:43:50;;;;;;;12.45;6.15;;;;;;;4.74;100.00;97812.09;5023791;28;20136;-46
2021/03/30 01:46:18;;;;;;;10.50;6.07;;;;;;;4.84;100.00;97812.50;4999741;28;20534;-47
2021/03/30 01:48:46;;;;;;;8.65;5.80;;;;;;;4.69;100.00;97813.25;5021108;28;20199;-48
2021/03/30 01:51:15;;;;;;;8.82;6.50;;;;;;;4.65;100.00;97809.94;5025543;28;20077;-49
2021/03/30 01:53:43;;;;;;;8.32;6.00;;;;;;;4.71;100.00;97819.25;5009572;28;20129;-46
2021/03/30 01:56:12;;;;;;;8.65;6.50;;;;;;;4.82;100.00;97814.34;5023990;28;20108;-47
2021/03/30 01:58:40;;;;;;;9.70;5.82;;;;;;;4.82;100.00;97816.09;4998903;28;20065;-46
2021/03/30 02:01:07;;;;;;;7.75;6.30;;;;;;;4.78;100.00;97802.34;5018194;28;20064;-51
2021/03/30 02:03:35;;;;;;;7.57;5.60;;;;;;;4.83;100.00;97802.97;4995117;28;20065;-51
2021/03/30 02:06:06;;;;;;;7.75;5.82;;;;;;;4.83;100.00;97808.19;5031570;28;20065;-44
2021/03/30 02:08:34;;;;;;;8.75;5.90;;;;;;;4.88;100.00;97803.56;4990770;28;20085;-52
2021/03/30 02:11:01;;;;;;;11.00;5.82;;;;;;;4.88;100.00;97811.41;5024483;28;20471;-52
2021/03/30 02:13:33;;;;;;;8.43;5.72;;;;;;;4.80;100.00;97810.13;4997350;28;20076;-48
2021/03/30 02:16:04;;;;;;;9.07;6.43;;;;;;;4.64;100.00;97808.22;5022010;28;20065;-50
2021/03/30 02:18:33;;;;;;;9.38;6.25;;;;;;;4.53;100.00;97805.31;4992804;28;20077;-51
2021/03/30 02:21:02;;;;;;;11.25;6.20;;;;;;;4.39;100.00;97810.34;5030283;28;20479;-52
2021/03/30 02:23:34;;;;;;;14.07;6.75;;;;;;;4.17;100.00;97806.16;4997531;28;20076;-53
2021/03/30 02:26:02;;;;;;;8.45;6.32;;;;;;;3.98;100.00;97808.75;5028289;28;20061;-52
2021/03/30 02:28:37;;;;;;;9.75;6.07;;;;;;;4.07;100.00;97814.50;4996346;28;20444;-52
2021/03/30 02:31:06;;;;;;;8.57;5.97;;;;;;;3.97;100.00;97812.28;5027670;28;20072;-46
2021/03/30 02:33:34;;;;;;;7.97;5.75;;;;;;;3.79;100.00;97813.13;4988018;28;20744;-53
2021/03/30 02:36:02;;;;;;;8.07;5.50;;;;;;;3.98;100.00;97813.13;5022678;28;20064;-48
2021/03/30 02:38:31;;;;;;;11.10;6.07;;;;;;;4.25;100.00;97808.41;4997468;28;20085;-51
2021/03/30 02:40:59;;;;;;;9.93;6.07;;;;;;;4.41;100.00;97809.38;5031555;28;20421;-49
2021/03/30 02:43:27;;;;;;;9.63;5.80;;;;;;;4.50;100.00;97800.22;4992923;28;20484;-46
2021/03/30 02:45:55;;;;;;;9.05;6.20;;;;;;;4.52;100.00;97812.31;5031120;28;20546;-47
2021/03/30 02:48:23;;;;;;;8.55;6.20;;;;;;;4.39;100.00;97803.34;5018815;28;20064;-46
2021/03/30 02:50:51;;;;;;;9.43;6.00;;;;;;;4.28;100.00;97806.50;4990425;28;20093;-49
2021/03/30 02:53:20;;;;;;;7.35;5.55;;;;;;;4.28;100.00;97806.50;5021420;28;20107;-48
2021/03/30 02:55:48;;;;;;;7.32;6.00;;;;;;;4.29;100.00;97802.94;4997572;28;20062;-52
2021/03/30 02:58:16;;;;;;;8.27;5.85;;;;;;;3.95;100.00;97808.91;5031656;28;20069;-51
2021/03/30 03:00:45;;;;;;;8.07;6.13;;;;;;;3.83;100.00;97806.88;5003779;28;20061;-53
2021/03/30 03:03:13;;;;;;;12.90;6.28;;;;;;;3.84;100.00;97799.88;5028223;28;20077;-46
2021/03/30 03:05:44;;;;;;;9.00;6.40;;;;;;;4.05;100.00;97809.31;4993534;28;20080;-46
2021/03/30 03:08:12;;;;;;;10.38;6.40;;;;;;;4.18;100.00;97804.38;5019759;28;20087;-47
2021/03/30 03:10:40;;;;;;;9.20;5.47;;;;;;;4.19;100.00;97798.22;4999938;28;20065;-49
2021/03/30 03:13:09;;;;;;;6.78;5.85;;;;;;;4.20;100.00;97799.94;5025857;28;20100;-47
2021/03/30 03:15:38;;;;;;;7.15;5.85;;;;;;;4.22;100.00;97803.31;4998269;28;20484;-48
2021/03/30 03:18:06;;;;;;;6.65;5.43;;;;;;;4.28;100.00;97806.50;5024405;28;20160;-52
2021/03/30 03:20:34;;;;;;;7.60;5.53;;;;;;;4.26;100.00;97794.41;4998422;28;20531;-49
2021/03/30 03:23:02;;;;;;;6.70;6.00;;;;;;;4.05;100.00;97804.09;5024708;28;21573;-48
2021/03/30 03:25:30;;;;;;;8.20;5.65;;;;;;;3.84;100.00;97805.09;5006474;28;20068;-48
2021/03/30 03:28:16;;;;;;;8.98;5.70;;;;;;;3.77;100.00;97807.13;5032741;28;20153;-49
2021/03/30 03:30:43;;;;;;;9.55;5.75;;;;;;;3.83;100.00;97806.88;5000123;28;20535;-46
2021/03/30 03:33:12;;;;;;;7.30;5.60;;;;;;;3.65;100.00;97815.50;5026537;28;20065;-49
2021/03/30 03:35:42;;;;;;;9.93;6.07;;;;;;;3.65;100.00;97812.88;4998313;28;20092;-50
2021/03/30 03:38:12;;;;;;;12.65;5.82;;;;;;;3.77;100.00;97805.38;5027922;28;20081;-50
2021/03/30 03:40:40;;;;;;;17.13;6.72;;;;;;;3.85;100.00;97812.84;5009269;28;20072;-50
2021/03/30 03:43:07;;;;;;;10.18;5.63;;;;;;;3.85;100.00;97807.63;5031256;28;20258;-47
2021/03/30 03:45:36;;;;;;;8.57;6.30;;;;;;;3.90;100.00;97807.44;5020270;28;20500;-50
2021/03/30 03:48:04;;;;;;;8.15;6.00;;;;;;;3.69;100.00;97807.47;5010586;28;20069;-46
2021/03/30 03:50:32;;;;;;;9.48;6.38;;;;;;;3.62;100.00;97813.91;5035327;28;20095;-47
2021/03/30 03:53:00;;;;;;;9.85;6.93;;;;;;;3.67;100.00;97811.06;4989516;28;20314;-50
2021/03/30 03:55:29;;;;;;;7.55;6.13;;;;;;;3.80;100.00;97807.00;5023555;28;20060;-47
2021/03/30 03:58:00;;;;;;;9.10;6.78;;;;;;;3.87;100.00;97802.34;4993990;28;20068;-50
2021/03/30 04:00:28;;;;;;;7.43;6.05;;;;;;;3.88;100.00;97806.63;5020573;28;20060;-47
2021/03/30 04:03:01;;;;;;;11.68;6.68;;;;;;;3.81;100.00;97808.69;5000232;28;20425;-49
2021/03/30 04:05:35;;;;;;;9.38;6.00;;;;;;;3.78;100.00;97820.09;5030694;28;20076;-52
2021/03/30 04:08:06;;;;;;;10.90;6.07;;;;;;;3.92;100.00;97816.88;4999487;28;20466;-49
2021/03/30 04:10:34;;;;;;;10.68;6.90;;;;;;;3.83;100.00;97825.13;5033488;28;20461;-52
2021/03/30 04:13:04;;;;;;;12.02;7.78;;;;;;;3.56;100.00;97822.81;4997116;28;20072;-47
2021/03/30 04:15:32;;;;;;;10.15;6.55;;;;;;;3.46;100.00;97826.75;5014284;28;20072;-49
2021/03/30 04:18:00;;;;;;;13.07;6.07;;;;;;;3.07;100.00;97830.16;4998583;28;20064;-49
2021/03/30 04:20:28;;;;;;;8.85;5.70;;;;;;;2.99;100.00;97829.63;5024315;28;20085;-49
2021/03/30 04:22:56;;;;;;;8.02;5.78;;;;;;;3.05;100.00;97824.16;4993520;28;20592;-53
2021/03/30 04:25:24;;;;;;;8.95;6.03;;;;;;;3.17;100.00;97821.97;5022197;28;20065;-47
2021/03/30 04:27:52;;;;;;;7.50;5.57;;;;;;;3.34;100.00;97819.47;4997625;28;20065;-49
2021/03/30 04:30:20;;;;;;;16.75;5.95;;;;;;;3.27;100.00;97818.06;5021963;28;20073;-50
2021/03/30 04:32:48;;;;;;;8.48;6.05;;;;;;;2.98;100.00;97821.88;4992548;28;20457;-50
2021/03/30 04:35:16;;;;;;;7.80;5.75;;;;;;;3.21;100.00;97818.31;5031392;28;20096;-50
2021/03/30 04:37:44;;;;;;;12.50;6.30;;;;;;;3.32;100.00;97816.09;5007490;28;20069;-46
2021/03/30 04:40:13;;;;;;;7.05;5.57;;;;;;;3.36;100.00;97820.25;5017784;28;20072;-45
2021/03/30 04:42:41;;;;;;;7.13;6.00;;;;;;;3.33;100.00;97820.38;5021450;28;20073;-52
2021/03/30 04:45:10;;;;;;;8.45;6.28;;;;;;;3.43;100.00;97820.81;4998146;28;20456;-50
2021/03/30 04:47:38;;;;;;;12.25;5.82;;;;;;;3.47;100.00;97825.00;5018845;28;20099;-46
2021/03/30 04:50:07;;;;;;;10.27;6.07;;;;;;;3.39;100.00;97825.31;5005578;28;20082;-47
2021/03/30 04:52:36;;;;;;;8.57;6.00;;;;;;;3.43;100.00;97828.66;5028180;28;20061;-47
2021/03/30 04:55:05;;;;;;;9.38;5.70;;;;;;;3.38;100.00;97831.47;4997662;28;20065;-48
2021/03/30 04:57:32;;;;;;;10.35;6.50;;;;;;;3.52;100.00;97830.88;5034529;28;20083;-50
2021/03/30 04:59:59;;;;;;;6.47;5.75;;;;;;;3.53;100.00;97824.72;4997648;28;20068;-50
2021/03/30 05:02:27;;;;;;;8.10;5.88;;;;;;;3.55;100.00;97834.19;5018252;28;20089;-52
2021/03/30 05:04:54;;;;;;;9.25;5.63;;;;;;;3.56;100.00;97835.03;4992537;28;20061;-49
2021/03/30 05:07:22;;;;;;;9.27;6.40;;;;;;;3.59;100.00;97837.50;5025036;28;20153;-53
2021/03/30 05:09:50;;;;;;;9.73;6.68;;;;;;;3.35;100.00;97841.19;4980029;28;20066;-49
2021/03/30 05:12:18;;;;;;;10.02;6.00;;;;;;;3.62;100.00;97842.59;5027204;28;20070;-47
2021/03/30 05:14:45;;;;;;;10.27;6.05;;;;;;;3.48;100.00;97839.75;5000207;28;20096;-49
2021/03/30 05:17:12;;;;;;;12.48;7.45;;;;;;;3.50;100.00;97838.75;5029562;28;20085;-49
2021/03/30 05:19:41;;;;;;;9.45;7.03;;;;;;;3.54;100.00;97839.44;4994884;28;23334;-46
2021/03/30 05:22:09;;;;;;;10.15;6.68;;;;;;;3.65;100.00;97845.06;5031553;28;20613;-51
2021/03/30 05:24:36;;;;;;;10.77;6.03;;;;;;;3.67;100.00;97840.59;4999491;28;20076;-46
2021/03/30 05:27:07;;;;;;;11.95;6.50;;;;;;;3.84;100.00;97842.47;5018836;28;20084;-50
2021/03/30 05:29:43;;;;;;;12.07;6.35;;;;;;;3.91;100.00;97850.88;5018997;28;20467;-49
2021/03/30 05:32:11;;;;;;;8.40;6.05;;;;;;;3.79;100.00;97850.50;5014997;28;20069;-48
2021/03/30 05:34:38;;;;;;;9.88;5.72;;;;;;;3.87;100.00;97851.94;5025101;28;20076;-53
2021/03/30 05:37:06;;;;;;;11.95;5.70;;;;;;;3.86;100.00;97848.47;4991691;28;20492;-52
2021/03/30 05:39:34;;;;;;;8.50;6.50;;;;;;;3.86;100.00;97850.25;5018915;28;20079;-51
2021/03/30 05:42:02;;;;;;;7.60;6.22;;;;;;;4.21;100.00;97843.41;4987978;28;20596;-50
2021/03/30 05:44:32;;;;;;;10.25;6.50;;;;;;;4.42;100.00;97850.22;5028706;28;20088;-48
2021/03/30 05:47:12;;;;;;;8.57;6.35;;;;;;;4.72;100.00;97845.31;5001036;28;21465;-50
2021/03/30 05:49:40;;;;;;;11.23;5.75;;;;;;;4.97;100.00;97846.72;5021485;28;20084;-47
2021/03/30 05:52:16;;;;;;;9.30;5.55;;;;;;;5.08;100.00;97843.56;4996941;28;20065;-47
2021/03/30 05:54:46;;;;;;;9.05;5.60;;;;;;;5.37;100.00;97845.56;5027005;28;20114;-49
2021/03/30 05:57:15;;;;;;;7.47;5.40;;;;;;;5.51;100.00;97847.50;4998261;28;20471;-50
2021/03/30 05:59:46;;;;;;;12.75;6.00;;;;;;;5.32;100.00;97850.19;5022240;28;20081;-51
2021/03/30 06:02:20;;;;;;;10.13;5.90;;;;;;;5.47;100.00;97857.25;5001149;28;20081;-51
2021/03/30 06:04:49;;;;;;;11.57;6.25;;;;;;;5.86;100.00;97858.72;5022773;28;20147;-51
2021/03/30 06:07:17;;;;;;;10.00;5.50;;;;;;;5.70;100.00;97855.22;4998975;28;20440;-48
2021/03/30 06:09:45;;;;;;;11.55;5.22;;;;;;;5.92;100.00;97865.41;5014920;28;20069;-51
2021/03/30 06:12:14;;;;;;;12.45;5.50;;;;;;;6.55;100.00;97856.81;5000556;28;20524;-50
2021/03/30 06:14:43;;;;;;;5.80;5.20;;;;;;;6.33;100.00;97860.59;5020823;28;20081;-46
2021/03/30 06:17:13;;;;;;;9.15;5.22;;;;;;;6.78;100.00;97856.34;4995420;28;20080;-49
2021/03/30 06:19:49;;;;;;;8.60;5.22;;;;;;;7.00;100.00;97858.59;5022007;28;20076;-47
2021/03/30 06:22:19;;;;;;;8.55;4.85;;;;;;;6.70;100.00;97861.16;4991610;28;20088;-48
2021/03/30 06:24:46;;;;;;;14.68;5.85;;;;;;;7.01;100.00;97859.44;5026503;28;20072;-47
2021/03/30 06:27:28;;;;;;;9.65;5.47;;;;;;;7.41;100.00;97865.00;4999182;28;20493;-49
2021/03/30 06:29:58;;;;;;;7.68;5.15;;;;;;;7.60;100.00;97860.34;5026848;28;20072;-47
2021/03/30 06:32:27;;;;;;;9.15;4.80;;;;;;;7.70;100.00;97871.97;5002766;28;20104;-53
2021/03/30 06:35:10;;;;;;;8.98;4.95;;;;;;;7.96;100.00;97873.03;5025804;28;20475;-47
2021/03/30 06:37:39;;;;;;;12.10;5.10;;;;;;;8.37;100.00;97871.44;5003297;28;20064;-47
2021/03/30 06:40:12;;;;;;;13.13;4.80;;;;;;;8.82;100.00;97869.47;5025191;28;20092;-49
2021/03/30 06:42:45;;;;;;;9.30;4.75;;;;;;;8.77;100.00;97865.38;4991749;28;20069;-44
2021/03/30 06:45:18;;;;;;;9.00;4.22;;;;;;;8.93;100.00;97862.56;5027721;28;20073;-47
2021/03/30 06:47:48;;;;;;;11.90;4.90;;;;;;;9.46;94.20;97857.31;5014365;28;20096;-45
2021/03/30 06:50:21;;;;;;;12.60;4.93;;;;;;;9.60;94.07;97851.13;5019929;28;20072;-47
2021/03/30 06:53:11;;;;;;;7.20;5.20;;;;;;;9.71;91.54;97862.63;4994549;28;21633;-48
2021/03/30 06:55:47;;;;;;;7.75;4.72;;;;;;;9.60;89.55;97857.25;5022315;28;20085;-47
2021/03/30 06:58:16;;;;;;;11.05;5.13;;;;;;;10.35;79.32;97857.31;5016988;28;20092;-49
2021/03/30 07:00:44;;;;;;;7.45;4.32;;;;;;;10.55;77.28;97860.34;5025483;28;20077;-50
2021/03/30 07:03:15;;;;;;;9.05;4.40;;;;;;;10.74;76.83;97859.88;5007178;28;20076;-52
2021/03/30 07:05:43;;;;;;;9.65;4.78;;;;;;;10.83;76.28;97861.81;5002073;28;20080;-49
2021/03/30 07:08:12;;;;;;;7.63;4.72;;;;;;;10.59;77.24;97862.63;5022979;28;20080;-46
2021/03/30 07:10:42;;;;;;;7.22;4.60;;;;;;;11.27;73.50;97863.00;4997155;28;20076;-46
2021/03/30 07:13:11;;;;;;;6.30;5.00;;;;;;;11.36;68.53;97864.97;5029228;28;20068;-47
2021/03/30 07:15:39;;;;;;;6.35;4.47;;;;;;;11.48;66.93;97857.91;4997874;28;20073;-46
2021/03/30 07:18:10;;;;;;;9.48;4.82;;;;;;;11.56;65.87;97864.31;5033575;28;20550;-47
2021/03/30 07:20:43;;;;;;;6.53;4.38;;;;;;;11.70;63.88;97862.38;5006899;28;20080;-51
2021/03/30 07:23:22;;;;;;;7.70;4.70;;;;;;;11.64;63.60;97861.06;5025237;28;20463;-48
2021/03/30 07:25:55;;;;;;;6.13;4.65;;;;;;;12.20;63.21;97855.88;5004643;28;20065;-49
2021/03/30 07:28:24;;;;;;;9.50;4.43;;;;;;;11.98;61.25;97866.44;5027630;28;20073;-52
2021/03/30 07:30:54;;;;;;;10.38;5.22;;;;;;;12.50;63.11;97860.56;4995231;28;20073;-48
2021/03/30 07:33:26;;;;;;;6.57;4.40;;;;;;;12.31;63.89;97862.97;5033400;28;20074;-49
2021/03/30 07:35:55;;;;;;;7.57;4.28;;;;;;;12.31;62.62;97866.44;5001672;28;20081;-50
2021/03/30 07:38:27;;;;;;;8.00;4.80;;;;;;;12.42;59.74;97862.09;5028079;28;20085;-49
2021/03/30 07:40:55;;;;;;;8.48;4.70;;;;;;;12.65;59.49;97858.47;5006535;28;20554;-47
2021/03/30 07:43:24;;;;;;;6.70;4.88;;;;;;;12.69;61.69;97862.56;5026859;28;20069;-50
2021/03/30 07:45:56;;;;;;;8.73;4.35;;;;;;;12.99;61.12;97853.94;4997101;28;20084;-48
2021/03/30 07:48:25;;;;;;;7.65;4.70;;;;;;;13.20;58.97;97855.78;5022849;28;20065;-48
2021/03/30 07:50:59;;;;;;;6.80;4.80;;;;;;;12.99;60.40;97867.19;4998217;28;20605;-50
2021/03/30 07:53:47;;;;;;;7.22;4.97;;;;;;;12.99;61.03;97861.88;5027582;28;20073;-47
2021/03/30 07:56:48;;;;;;;5.95;4.43;;;;;;;13.47;60.41;97866.78;5000588;28;20466;-49
2021/03/30 07:59:46;;;;;;;6.47;4.75;;;;;;;13.46;56.46;97867.75;5000498;28;20061;-50
2021/03/30 08:02:17;;;;;;;5.43;4.53;;;;;;;13.73;55.71;97855.81;4999193;28;20476;-48
2021/03/30 08:05:06;;;;;;;7.43;4.70;;;;;;;13.90;53.75;97862.31;5019568;28;20072;-53
2021/03/30 08:07:54;;;;;;;7.80;4.63;;;;;;;13.97;50.14;97861.69;4988382;28;20064;-51
2021/03/30 08:10:23;;;;;;;7.35;4.30;;;;;;;14.25;50.09;97857.47;5016854;28;20613;-47
2021/03/30 08:13:30;;;;;;;10.25;4.68;;;;;;;14.21;50.82;97861.38;5006883;28;20064;-48
2021/03/30 08:15:59;;;;;;;7.50;4.55;;;;;;;14.42;50.26;97855.16;5031307;28;20057;-50
2021/03/30 08:18:29;;;;;;;5.80;3.92;;;;;;;14.43;47.62;97855.03;4994311;28;20073;-49
2021/03/30 08:20:59;;;;;;;7.43;4.30;;;;;;;14.93;46.41;97848.88;5027771;28;20452;-50
2021/03/30 08:23:28;;;;;;;;;;;;;;;14.70;46.75;97862.41;5000813;28;20076;-48
2021/03/30 08:26:17;;;;;;;7.95;4.60;;;;;;;14.64;46.35;97862.09;5019545;28;21191;-48
2021/03/30 08:28:59;;;;;;;7.22;4.03;;;;;;;15.05;46.21;97863.72;5003404;28;20088;-51
2021/03/30 08:31:29;;;;;;;6.05;4.55;;;;;;;14.62;47.71;97867.53;5023284;28;20064;-48
2021/03/30 08:33:58;;;;;;;8.18;4.97;;;;;;;15.17;47.50;97859.97;4992817;28;20068;-50
2021/03/30 08:36:37;;;;;;;6.47;4.78;;;;;;;14.93;47.74;97859.50;5025352;28;20059;-47
2021/03/30 08:39:08;;;;;;;8.30;4.80;;;;;;;15.43;47.49;97864.72;5000046;28;20512;-49
2021/03/30 08:42:00;;;;;;;7.63;4.30;;;;;;;15.75;45.35;97845.81;5021283;28;20519;-50
2021/03/30 08:44:36;;;;;;;8.68;4.20;;;;;;;15.94;44.03;97858.25;5003647;28;21114;-48
2021/03/30 08:47:34;;;;;;;7.32;4.63;;;;;;;15.98;43.60;97850.81;5029009;28;20150;-48
2021/03/30 08:50:13;;;;;;;6.88;4.75;;;;;;;16.07;44.48;97855.25;5020460;28;21562;-49
2021/03/30 08:52:41;;;;;;;6.43;4.45;;;;;;;16.40;44.07;97858.38;5013582;28;20080;-55
2021/03/30 08:55:12;;;;;;;10.02;4.97;;;;;;;16.14;44.19;97864.38;5033537;28;20071;-52
2021/03/30 08:57:47;;;;;;;8.40;4.53;;;;;;;15.74;44.99;97861.94;5023479;28;20069;-50
2021/03/30 09:00:17;;;;;;;14.00;5.30;;;;;;;15.80;44.66;97870.19;5016530;28;21321;-49
2021/03/30 09:02:44;;;;;;;7.75;4.70;;;;;;;15.68;43.98;97863.31;5024753;28;20096;-48
2021/03/30 09:05:15;;;;;;;8.65;5.10;;;;;;;16.39;42.07;97862.88;4998542;28;20088;-50
2021/03/30 09:07:43;;;;;;;5.82;4.40;;;;;;;16.63;41.50;97870.31;5005020;28;20547;-50
2021/03/30 09:10:12;;;;;;;6.57;4.55;;;;;;;16.70;41.25;97860.75;5003245;28;20060;-47
2021/03/30 09:12:40;;;;;;;7.75;4.60;;;;;;;16.86;39.47;97865.44;5024238;28;20057;-47
2021/03/30 09:15:09;;;;;;;9.45;4.60;;;;;;;17.60;37.98;97853.66;5004713;28;20068;-50
2021/03/30 09:17:37;;;;;;;8.35;4.70;;;;;;;17.47;38.19;97842.53;5024971;28;20073;-47
2021/03/30 09:20:17;;;;;;;7.30;5.18;;;;;;;17.51;39.03;97843.91;4998771;28;20459;-52
2021/03/30 09:22:53;;;;;;;7.05;4.78;;;;;;;17.64;39.05;97847.03;5027209;28;20149;-50
2021/03/30 09:25:29;;;;;;;9.30;4.47;;;;;;;18.09;38.17;97843.34;5004865;28;20083;-50
2021/03/30 09:27:58;;;;;;;6.50;4.82;;;;;;;17.58;37.94;97852.13;5018677;28;20458;-48
2021/03/30 09:30:27;;;;;;;7.53;4.80;;;;;;;17.89;37.15;97844.56;4987802;28;20545;-51
2021/03/30 09:32:55;;;;;;;7.32;5.18;;;;;;;17.66;36.70;97842.38;5030429;28;20079;-48
2021/03/30 09:35:25;;;;;;;6.47;4.82;;;;;;;17.51;36.82;97846.56;4997223;28;20088;-53
2021/03/30 09:37:53;;;;;;;6.75;4.60;;;;;;;17.93;35.13;97838.78;5027146;28;20503;-50
2021/03/30 09:40:26;;;;;;;10.30;4.78;;;;;;;17.68;36.55;97836.88;5001550;28;20753;-49
2021/03/30 09:42:54;;;;;;;8.25;4.93;;;;;;;17.60;36.38;97837.66;5024430;28;20061;-48
2021/03/30 09:45:26;;;;;;;12.27;5.30;;;;;;;18.01;37.86;97833.47;5003516;28;20057;-50
2021/03/30 09:47:53;;;;;;;7.10;4.50;;;;;;;18.69;37.11;97832.63;5020126;28;20081;-52
2021/03/30 09:50:22;;;;;;;8.10;5.03;;;;;;;18.37;35.93;97833.31;5009564;28;20087;-48
2021/03/30 09:52:50;;;;;;;6.25;4.95;;;;;;;18.58;35.73;97832.06;5030377;28;20068;-48
2021/03/30 09:55:29;;;;;;;8.52;5.15;;;;;;;18.07;37.30;97831.19;4997080;28;20135;-54
2021/03/30 09:58:00;;;;;;;6.95;5.05;;;;;;;18.26;37.24;97831.75;5025719;28;20069;-50
2021/03/30 10:00:30;;;;;;;12.93;5.78;;;;;;;18.40;37.83;97829.50;4988265;28;20060;-53
2021/03/30 10:02:58;;;;;;;8.80;5.60;;;;;;;19.01;36.32;97822.22;5021858;28;20061;-48
2021/03/30 10:05:32;;;;;;;10.23;5.75;;;;;;;18.84;35.57;97824.00;5020924;28;20080;-48
2021/03/30 10:07:59;;;;;;;7.13;5.88;;;;;;;18.93;34.93;97825.72;5016876;28;20133;-48
2021/03/30 10:10:41;;;;;;;8.40;5.75;;;;;;;18.88;35.53;97820.00;5017375;28;20125;-50
2021/03/30 10:13:23;;;;;;;10.93;5.90;;;;;;;19.15;35.06;97813.53;5041601;28;20071;-52
2021/03/30 10:15:51;;;;;;;8.20;5.85;;;;;;;19.09;34.98;97814.19;5009005;28;20068;-46
2021/03/30 10:18:20;;;;;;;7.43;6.10;;;;;;;19.17;34.83;97817.72;5016489;28;20071;-50
2021/03/30 10:20:50;;;;;;;9.35;6.25;;;;;;;19.54;35.58;97813.72;5027997;28;20477;-48
2021/03/30 10:23:19;;;;;;;9.38;5.80;;;;;;;19.48;36.75;97806.38;5000080;28;20462;-52
2021/03/30 10:25:48;;;;;;;8.95;5.97;;;;;;;19.65;35.95;97805.41;5025193;28;20054;-48
2021/03/30 10:28:25;;;;;;;8.85;6.43;;;;;;;19.72;35.14;97805.56;5010070;28;20057;-47
2021/03/30 10:30:57;;;;;;;10.43;6.88;;;;;;;19.80;34.48;97802.84;5030127;28;20064;-50
2021/03/30 10:33:37;;;;;;;11.90;7.50;;;;;;;20.05;34.21;97802.81;4991310;28;20103;-48
2021/03/30 10:36:05;;;;;;;12.20;8.27;;;;;;;19.66;32.84;97798.19;5025909;28;20065;-49
2021/03/30 10:38:33;;;;;;;10.93;8.30;;;;;;;20.13;32.83;97805.44;5003153;28;20719;-53
2021/03/30 10:41:05;;;;;;;10.85;7.80;;;;;;;19.83;34.06;97799.00;5024378;28;20413;-56
2021/03/30 10:43:33;;;;;;;14.45;8.23;;;;;;;19.91;33.03;97797.13;5009300;28;20053;-48
2021/03/30 10:46:02;;;;;;;13.52;8.10;;;;;;;19.92;33.61;97792.63;5028040;28;20053;-48
2021/03/30 10:48:29;;;;;;;15.07;8.73;;;;;;;20.10;32.60;97787.91;4994246;28;20441;-49
2021/03/30 10:50:57;;;;;;;13.75;9.02;;;;;;;20.93;32.78;97777.66;5032893;28;20073;-51
2021/03/30 10:53:24;;;;;;;14.32;9.30;;;;;;;20.00;32.54;97784.56;4998565;28;20079;-47
2021/03/30 10:55:52;;;;;;;12.50;9.77;;;;;;;20.57;32.11;97781.69;5024657;28;20120;-52
2021/03/30 10:58:20;;;;;;;12.70;9.70;;;;;;;20.15;32.51;97784.69;5002371;28;20052;-53
2021/03/30 11:00:47;;;;;;;11.55;9.27;;;;;;;20.06;32.12;97772.31;5018867;28;20437;-50
2021/03/30 11:03:29;;;;;;;12.98;9.23;;;;;;;20.48;31.73;97776.53;4986052;28;20094;-49
2021/03/30 11:05:56;;;;;;;11.43;8.07;;;;;;;19.97;32.41;97765.34;5030510;28;20573;-47
2021/03/30 11:08:25;;;;;;;11.68;8.70;;;;;;;20.78;30.30;97759.63;4987714;28;20088;-52
2021/03/30 11:10:52;;;;;;;11.88;9.05;;;;;;;21.06;31.82;97753.75;5020260;28;20065;-47
2021/03/30 11:13:20;;;;;;;11.98;8.07;;;;;;;20.79;30.55;97757.81;4997648;28;20447;-50
2021/03/30 11:15:49;;;;;;;11.25;8.00;;;;;;;20.43;30.82;97754.78;5027886;28;20099;-54
2021/03/30 11:18:17;;;;;;;11.00;7.90;;;;;;;20.31;29.90;97757.84;5014588;28;20061;-48
2021/03/30 11:20:45;;;;;;;9.85;7.43;;;;;;;20.50;30.50;97755.75;5014778;28;20073;-52
2021/03/30 11:23:13;;;;;;;11.98;8.55;;;;;;;20.76;30.83;97742.91;5035385;28;20074;-51
2021/03/30 11:25:40;;;;;;;10.38;7.50;;;;;;;21.12;29.42;97746.81;5016407;28;20451;-50
2021/03/30 11:28:09;;;;;;;11.57;7.47;;;;;;;20.70;30.69;97740.09;5023943;28;20064;-48
2021/03/30 11:30:40;;;;;;;11.00;8.02;;;;;;;21.12;30.55;97731.56;4997239;28;20078;-49
2021/03/30 11:33:28;;;;;;;10.57;6.67;;;;;;;21.53;28.62;97729.38;5032204;28;20057;-48
2021/03/30 11:35:59;;;;;;;11.67;7.33;;;;;;;21.03;29.56;97729.97;4996631;28;20085;-48
2021/03/30 11:38:27;;;;;;;11.90;7.45;;;;;;;20.91;28.99;97728.72;5027675;28;20534;-52
2021/03/30 11:40:54;;;;;;;13.23;7.95;;;;;;;21.35;30.34;97723.53;5006877;28;20064;-54
2021/03/30 11:43:22;;;;;;;12.20;8.57;;;;;;;21.41;29.84;97716.59;5030055;28;20068;-50
2021/03/30 11:45:50;;;;;;;11.80;8.30;;;;;;;20.67;30.26;97721.69;5005367;28;20098;-50
2021/03/30 11:48:17;;;;;;;15.35;9.02;;;;;;;21.30;29.99;97713.31;5025350;28;20069;-48